createdAt,value
2023-05-05T00:03:44.346Z,96609.34
2023-05-05T00:08:47.352Z,96607.88
2023-05-05T00:13:50.122Z,96603.63
2023-05-05T00:18:52.561Z,96608.72
2023-05-05T00:23:56.228Z,96590.47
2023-05-05T00:28:58.496Z,96609.47
2023-05-05T00:34:01.266Z,96604.31
2023-05-05T00:39:04.008Z,96595.34
2023-05-05T00:44:06.889Z,96613.53
2023-05-05T00:49:10.288Z,96629.19
2023-05-05T00:54:13.027Z,96612.38
2023-05-05T00:59:15.775Z,96592.53
2023-05-05T01:04:18.394Z,96618.91
2023-05-05T01:09:48.456Z,96630.63
2023-05-05T01:15:01.865Z,96604.09
2023-05-05T01:20:22.162Z,96627.69
2023-05-05T01:26:08.825Z,96605.81
2023-05-05T01:31:38.750Z,96622.47
2023-05-05T01:36:47.352Z,96571.19
2023-05-05T01:41:52.628Z,96605.66
2023-05-05T01:46:56.206Z,96590.84
2023-05-05T01:51:59.769Z,96590.75
2023-05-05T01:57:06.400Z,96600.50
2023-05-05T02:02:12.302Z,96572.31
2023-05-05T02:07:16.654Z,96591.94
2023-05-05T02:12:21.204Z,96589.56
2023-05-05T02:17:25.855Z,96585.94
2023-05-05T02:22:28.968Z,96589.63
2023-05-05T02:27:34.194Z,96590.66
2023-05-05T02:32:51.344Z,96563.09
2023-05-05T02:38:02.884Z,96568.66
2023-05-05T02:43:15.586Z,96577.63
2023-05-05T02:48:18.702Z,96590.00
2023-05-05T02:53:26.193Z,96576.66
2023-05-05T02:58:46.505Z,96583.03
2023-05-05T03:04:07.226Z,96568.25
2023-05-05T03:09:21.656Z,96595.78
2023-05-05T03:14:28.083Z,96549.97
2023-05-05T03:19:32.452Z,96590.59
2023-05-05T03:24:36.923Z,96564.41
2023-05-05T03:29:43.706Z,96573.47
2023-05-05T03:34:49.562Z,96591.78
2023-05-05T03:39:52.343Z,96576.78
2023-05-05T03:44:57.372Z,96598.25
2023-05-05T03:50:01.128Z,96585.72
2023-05-05T03:55:04.618Z,96572.13
2023-05-05T04:00:11.106Z,96592.53
2023-05-05T04:05:17.175Z,96616.50
2023-05-05T04:10:20.285Z,96592.56
2023-05-05T04:15:23.046Z,96599.94
2023-05-05T04:20:26.336Z,96610.13
2023-05-05T04:25:30.655Z,96608.19
2023-05-05T04:30:33.702Z,96604.84
2023-05-05T04:35:37.322Z,96602.16
2023-05-05T04:40:41.494Z,96613.59
2023-05-05T04:45:56.763Z,96622.75
2023-05-05T04:51:08.324Z,96626.13
2023-05-05T04:56:12.368Z,96604.16
2023-05-05T05:01:15.131Z,96615.41
2023-05-05T05:06:18.229Z,96609.59
2023-05-05T05:11:22.386Z,96613.69
2023-05-05T05:16:26.051Z,96619.34
2023-05-05T05:21:28.995Z,96617.63
2023-05-05T05:26:33.497Z,96617.56
2023-05-05T05:31:37.168Z,96621.97
2023-05-05T05:36:40.718Z,96622.25
2023-05-05T05:41:43.750Z,96629.09
2023-05-05T05:46:46.760Z,96622.69
2023-05-05T05:51:50.711Z,96643.84
2023-05-05T05:56:53.973Z,96627.22
2023-05-05T06:01:56.976Z,96629.91
2023-05-05T06:06:59.858Z,96628.59
2023-05-05T06:12:04.055Z,96634.00
2023-05-05T06:17:07.450Z,96639.91
2023-05-05T06:22:10.426Z,96636.13
2023-05-05T06:27:13.643Z,96644.63
2023-05-05T06:32:16.391Z,96630.72
2023-05-05T06:37:19.222Z,96630.59
2023-05-05T06:42:21.820Z,96646.00
2023-05-05T06:47:24.665Z,96643.53
2023-05-05T06:52:27.477Z,96645.19
2023-05-05T06:57:29.691Z,96646.84
2023-05-05T07:02:33.947Z,96643.69
2023-05-05T07:07:37.795Z,96651.00
2023-05-05T07:12:40.806Z,96640.91
2023-05-05T07:17:43.693Z,96635.91
2023-05-05T07:22:46.339Z,96651.97
2023-05-05T07:27:49.407Z,96639.59
2023-05-05T07:32:52.255Z,96644.09
2023-05-05T07:37:55.004Z,96642.06
2023-05-05T07:42:57.736Z,96632.31
2023-05-05T07:48:00.374Z,96643.69
2023-05-05T07:53:13.749Z,96649.97
2023-05-05T07:58:18.602Z,96653.75
2023-05-05T08:03:24.902Z,96670.03
2023-05-05T08:08:27.978Z,96661.97
2023-05-05T08:13:30.779Z,96665.50
2023-05-05T08:18:34.688Z,96653.28
2023-05-05T08:23:38.428Z,96651.91
2023-05-05T08:28:41.591Z,96647.03
2023-05-05T08:33:43.694Z,96644.84
2023-05-05T08:38:46.799Z,96644.88
2023-05-05T08:43:50.794Z,96642.22
2023-05-05T08:48:55.813Z,96634.50
2023-05-05T08:54:05.513Z,96635.28
2023-05-05T08:59:11.402Z,96643.25
2023-05-05T09:04:14.014Z,96640.41
2023-05-05T09:09:17.150Z,96641.59
2023-05-05T09:14:20.052Z,96638.22
2023-05-05T09:19:22.914Z,96607.94
2023-05-05T09:24:25.941Z,96616.31
2023-05-05T09:29:28.677Z,96613.19
2023-05-05T09:34:32.882Z,96639.84
2023-05-05T09:39:35.774Z,96614.72
2023-05-05T09:44:40.888Z,96623.31
2023-05-05T09:49:43.124Z,96619.69
2023-05-05T09:54:45.941Z,96600.16
2023-05-05T10:00:13.720Z,96610.41
2023-05-05T10:05:18.398Z,96599.84
2023-05-05T10:10:21.328Z,96613.69
2023-05-05T10:15:24.072Z,96581.91
2023-05-05T10:20:27.155Z,96581.59
2023-05-05T10:25:31.814Z,96601.28
2023-05-05T10:30:40.530Z,96607.09
2023-05-05T10:35:45.318Z,96579.81
2023-05-05T10:40:49.085Z,96590.69
2023-05-05T10:45:52.237Z,96598.00
2023-05-05T10:51:06.530Z,96596.00
2023-05-05T10:56:09.120Z,96595.41
2023-05-05T11:01:11.346Z,96566.28
2023-05-05T11:06:14.128Z,96571.88
2023-05-05T11:11:16.847Z,96561.50
2023-05-05T11:16:48.438Z,96579.44
2023-05-05T11:22:04.399Z,96552.38
2023-05-05T11:27:07.255Z,96547.31
2023-05-05T11:32:16.565Z,96576.16
2023-05-05T11:37:24.494Z,96553.16
2023-05-05T11:42:27.885Z,96540.03
2023-05-05T11:47:32.432Z,96539.91
2023-05-05T11:52:35.308Z,96554.66
2023-05-05T11:57:38.244Z,96547.19
2023-05-05T12:02:40.576Z,96549.50
2023-05-05T12:07:43.447Z,96557.00
2023-05-05T12:12:46.163Z,96559.44
2023-05-05T12:17:49.088Z,96528.28
2023-05-05T12:22:51.891Z,96539.38
2023-05-05T12:27:54.028Z,96544.34
2023-05-05T12:33:04.010Z,96533.81
2023-05-05T12:38:07.227Z,96510.47
2023-05-05T12:43:10.017Z,96507.69
2023-05-05T12:48:22.752Z,96502.03
2023-05-05T12:53:25.942Z,96471.03
2023-05-05T12:58:29.297Z,96479.25
2023-05-05T13:03:32.085Z,96487.91
2023-05-05T13:08:44.666Z,96477.78
2023-05-05T13:13:47.018Z,96512.63
2023-05-05T13:18:50.725Z,96500.50
2023-05-05T13:23:53.966Z,96505.97
2023-05-05T18:26:18.965Z,96535.53
2023-05-05T18:31:21.585Z,96536.19
2023-05-05T18:36:24.461Z,96542.78
2023-05-05T18:41:27.045Z,96525.53
2023-05-05T18:46:29.768Z,96536.56
2023-05-05T18:51:32.466Z,96553.00
2023-05-05T18:56:35.342Z,96532.72
2023-05-05T19:01:38.104Z,96526.56
2023-05-05T19:06:41.028Z,96511.19
2023-05-05T19:11:43.706Z,96538.13
2023-05-05T19:16:46.438Z,96533.19
2023-05-05T19:21:49.195Z,96542.66
2023-05-05T19:26:51.879Z,96538.13
2023-05-05T19:31:54.001Z,96560.28
2023-05-05T19:36:56.607Z,96537.88
2023-05-05T19:41:59.265Z,96531.88
2023-05-05T19:47:01.989Z,96533.13
2023-05-05T19:52:04.726Z,96543.66
2023-05-05T19:57:07.608Z,96537.34
2023-05-05T20:02:11.726Z,96527.88
2023-05-05T20:07:15.802Z,96523.38
2023-05-05T20:12:20.103Z,96531.06
2023-05-05T20:17:24.036Z,96524.91
2023-05-05T20:22:27.148Z,96526.38
2023-05-05T20:27:29.830Z,96526.19
2023-05-05T20:32:32.213Z,96490.28
2023-05-05T20:37:34.880Z,96541.31
2023-05-05T20:42:37.292Z,96530.66
2023-05-05T20:47:40.137Z,96544.72
2023-05-05T20:52:42.769Z,96528.00
2023-05-05T20:57:46.147Z,96533.56
2023-05-05T21:02:48.365Z,96533.03
2023-05-05T21:07:53.708Z,96549.94
2023-05-05T21:12:56.264Z,96533.97
2023-05-05T21:17:58.877Z,96540.25
2023-05-05T21:23:01.517Z,96524.59
2023-05-05T21:28:03.753Z,96526.16
2023-05-05T21:33:06.390Z,96533.13
2023-05-05T21:38:09.051Z,96534.63
2023-05-05T21:43:14.401Z,96527.69
2023-05-05T21:48:16.950Z,96523.25
2023-05-05T21:53:19.442Z,96524.19
2023-05-05T21:58:21.940Z,96517.53
2023-05-05T22:03:24.685Z,96525.69
2023-05-05T22:08:27.361Z,96536.13
2023-05-05T22:13:29.530Z,96538.06
2023-05-05T22:18:31.600Z,96511.59
2023-05-05T22:23:34.134Z,96504.59
2023-05-05T22:28:36.754Z,96507.84
2023-05-05T22:33:38.855Z,96474.53
2023-05-05T22:38:41.408Z,96486.47
2023-05-05T22:43:43.973Z,96495.72
2023-05-05T22:48:46.856Z,96500.34
2023-05-05T22:53:49.048Z,96477.91
2023-05-05T22:58:51.808Z,96477.66
2023-05-05T23:03:54.388Z,96476.25
2023-05-05T23:08:56.957Z,96446.13
2023-05-05T23:13:59.535Z,96482.44
2023-05-05T23:19:02.128Z,96456.19
2023-05-05T23:24:04.872Z,96462.75
2023-05-05T23:29:07.519Z,96449.88
2023-05-05T23:34:09.653Z,96446.47
2023-05-05T23:39:12.283Z,96448.97
2023-05-05T23:44:14.283Z,96429.50
2023-05-05T23:49:16.773Z,96434.38
2023-05-05T23:54:18.968Z,96445.34
2023-05-05T23:59:21.561Z,96436.16
